sensor_id;sensor_type;location;lat;lon;timestamp;P1;durP1;ratioP1;P2;durP2;ratioP2
73276;SDS011;61501;43.316;5.372;2023-07-31T00:00:07;4.10;;;2.33;;
73276;SDS011;61501;43.316;5.372;2023-07-31T00:02:36;4.40;;;1.90;;
73276;SDS011;61501;43.316;5.372;2023-07-31T00:05:02;3.15;;;2.10;;
73276;SDS011;61501;43.316;5.372;2023-07-31T00:07:28;3.53;;;2.13;;
73276;SDS011;61501;43.316;5.372;2023-07-31T00:09:53;2.72;;;1.77;;
73276;SDS011;61501;43.316;5.372;2023-07-31T00:12:21;2.83;;;2.10;;
73276;SDS011;61501;43.316;5.372;2023-07-31T00:14:47;5.60;;;1.92;;
73276;SDS011;61501;43.316;5.372;2023-07-31T00:17:12;4.13;;;2.30;;
73276;SDS011;61501;43.316;5.372;2023-07-31T00:19:38;3.67;;;2.28;;
73276;SDS011;61501;43.316;5.372;2023-07-31T00:22:04;3.38;;;2.15;;
73276;SDS011;61501;43.316;5.372;2023-07-31T00:24:30;4.15;;;3.15;;
73276;SDS011;61501;43.316;5.372;2023-07-31T00:26:55;5.60;;;2.47;;
73276;SDS011;61501;43.316;5.372;2023-07-31T00:29:21;4.50;;;2.13;;
73276;SDS011;61501;43.316;5.372;2023-07-31T00:31:46;2.85;;;1.83;;
73276;SDS011;61501;43.316;5.372;2023-07-31T00:34:12;3.05;;;1.70;;
73276;SDS011;61501;43.316;5.372;2023-07-31T00:36:38;3.42;;;1.98;;
73276;SDS011;61501;43.316;5.372;2023-07-31T00:39:03;4.15;;;1.98;;
73276;SDS011;61501;43.316;5.372;2023-07-31T00:41:29;3.80;;;2.05;;
73276;SDS011;61501;43.316;5.372;2023-07-31T00:43:55;4.45;;;2.10;;
73276;SDS011;61501;43.316;5.372;2023-07-31T00:46:21;3.17;;;2.17;;
73276;SDS011;61501;43.316;5.372;2023-07-31T00:48:46;3.78;;;2.15;;
73276;SDS011;61501;43.316;5.372;2023-07-31T00:51:12;3.40;;;1.92;;
73276;SDS011;61501;43.316;5.372;2023-07-31T00:53:39;4.07;;;1.90;;
73276;SDS011;61501;43.316;5.372;2023-07-31T00:56:06;4.93;;;1.92;;
73276;SDS011;61501;43.316;5.372;2023-07-31T00:58:32;4.15;;;2.10;;
73276;SDS011;61501;43.316;5.372;2023-07-31T01:00:58;4.45;;;2.20;;
73276;SDS011;61501;43.316;5.372;2023-07-31T01:03:24;4.30;;;1.98;;
73276;SDS011;61501;43.316;5.372;2023-07-31T01:08:57;4.18;;;2.10;;
73276;SDS011;61501;43.316;5.372;2023-07-31T01:11:42;3.65;;;2.00;;
73276;SDS011;61501;43.316;5.372;2023-07-31T01:14:15;6.18;;;2.20;;
73276;SDS011;61501;43.316;5.372;2023-07-31T01:16:41;5.97;;;2.28;;
73276;SDS011;61501;43.316;5.372;2023-07-31T01:19:06;5.65;;;2.08;;
73276;SDS011;61501;43.316;5.372;2023-07-31T01:21:41;6.65;;;2.40;;
73276;SDS011;61501;43.316;5.372;2023-07-31T01:24:25;11.80;;;3.08;;
73276;SDS011;61501;43.316;5.372;2023-07-31T01:27:06;4.70;;;1.98;;
73276;SDS011;61501;43.316;5.372;2023-07-31T01:29:38;4.03;;;2.10;;
73276;SDS011;61501;43.316;5.372;2023-07-31T01:32:14;4.50;;;2.10;;
73276;SDS011;61501;43.316;5.372;2023-07-31T01:34:42;4.03;;;2.22;;
73276;SDS011;61501;43.316;5.372;2023-07-31T01:37:09;3.00;;;1.70;;
73276;SDS011;61501;43.316;5.372;2023-07-31T01:39:35;5.88;;;2.20;;
73276;SDS011;61501;43.316;5.372;2023-07-31T01:42:00;5.25;;;1.95;;
73276;SDS011;61501;43.316;5.372;2023-07-31T01:44:26;4.82;;;2.10;;
73276;SDS011;61501;43.316;5.372;2023-07-31T01:46:52;3.72;;;2.03;;
73276;SDS011;61501;43.316;5.372;2023-07-31T01:49:25;3.45;;;1.83;;
73276;SDS011;61501;43.316;5.372;2023-07-31T01:51:51;4.97;;;1.80;;
73276;SDS011;61501;43.316;5.372;2023-07-31T01:54:17;4.90;;;2.03;;
73276;SDS011;61501;43.316;5.372;2023-07-31T01:56:42;4.20;;;1.95;;
73276;SDS011;61501;43.316;5.372;2023-07-31T01:59:08;4.38;;;2.13;;
73276;SDS011;61501;43.316;5.372;2023-07-31T02:01:34;4.05;;;2.00;;
73276;SDS011;61501;43.316;5.372;2023-07-31T02:03:59;6.45;;;2.15;;
73276;SDS011;61501;43.316;5.372;2023-07-31T02:06:25;3.35;;;1.83;;
73276;SDS011;61501;43.316;5.372;2023-07-31T02:08:50;3.78;;;1.77;;
73276;SDS011;61501;43.316;5.372;2023-07-31T02:11:16;3.50;;;1.90;;
73276;SDS011;61501;43.316;5.372;2023-07-31T02:13:42;4.78;;;2.10;;
73276;SDS011;61501;43.316;5.372;2023-07-31T02:16:08;5.43;;;2.05;;
73276;SDS011;61501;43.316;5.372;2023-07-31T02:18:33;4.13;;;2.10;;
73276;SDS011;61501;43.316;5.372;2023-07-31T02:20:59;3.88;;;1.83;;
73276;SDS011;61501;43.316;5.372;2023-07-31T02:23:24;5.15;;;1.80;;
73276;SDS011;61501;43.316;5.372;2023-07-31T02:25:50;2.80;;;1.60;;
73276;SDS011;61501;43.316;5.372;2023-07-31T02:28:15;3.58;;;1.88;;
73276;SDS011;61501;43.316;5.372;2023-07-31T02:30:44;3.47;;;1.80;;
73276;SDS011;61501;43.316;5.372;2023-07-31T02:33:11;3.80;;;2.08;;
73276;SDS011;61501;43.316;5.372;2023-07-31T02:35:36;3.60;;;1.92;;
73276;SDS011;61501;43.316;5.372;2023-07-31T02:38:05;4.72;;;2.05;;
73276;SDS011;61501;43.316;5.372;2023-07-31T02:40:31;3.20;;;1.92;;
73276;SDS011;61501;43.316;5.372;2023-07-31T02:42:56;6.32;;;2.00;;
73276;SDS011;61501;43.316;5.372;2023-07-31T02:45:22;5.45;;;2.42;;
73276;SDS011;61501;43.316;5.372;2023-07-31T02:47:48;5.05;;;2.05;;
73276;SDS011;61501;43.316;5.372;2023-07-31T02:50:13;3.97;;;2.00;;
73276;SDS011;61501;43.316;5.372;2023-07-31T02:52:39;3.65;;;1.98;;
73276;SDS011;61501;43.316;5.372;2023-07-31T02:55:05;4.65;;;1.90;;
73276;SDS011;61501;43.316;5.372;2023-07-31T02:57:31;4.75;;;2.00;;
73276;SDS011;61501;43.316;5.372;2023-07-31T02:59:57;4.50;;;1.98;;
73276;SDS011;61501;43.316;5.372;2023-07-31T03:02:22;4.63;;;1.83;;
73276;SDS011;61501;43.316;5.372;2023-07-31T03:04:48;3.33;;;1.75;;
73276;SDS011;61501;43.316;5.372;2023-07-31T03:07:14;4.85;;;2.15;;
73276;SDS011;61501;43.316;5.372;2023-07-31T03:09:39;8.18;;;2.50;;
73276;SDS011;61501;43.316;5.372;2023-07-31T03:12:05;3.30;;;1.75;;
73276;SDS011;61501;43.316;5.372;2023-07-31T03:14:31;2.80;;;1.77;;
73276;SDS011;61501;43.316;5.372;2023-07-31T03:16:57;3.78;;;1.88;;
73276;SDS011;61501;43.316;5.372;2023-07-31T03:19:22;4.22;;;1.90;;
73276;SDS011;61501;43.316;5.372;2023-07-31T03:21:48;3.58;;;1.75;;
73276;SDS011;61501;43.316;5.372;2023-07-31T03:24:14;4.85;;;1.90;;
73276;SDS011;61501;43.316;5.372;2023-07-31T03:26:47;4.18;;;1.95;;
73276;SDS011;61501;43.316;5.372;2023-07-31T03:29:12;3.15;;;1.90;;
73276;SDS011;61501;43.316;5.372;2023-07-31T03:31:38;5.35;;;2.78;;
73276;SDS011;61501;43.316;5.372;2023-07-31T03:34:03;5.43;;;2.22;;
73276;SDS011;61501;43.316;5.372;2023-07-31T03:36:29;6.47;;;2.10;;
73276;SDS011;61501;43.316;5.372;2023-07-31T03:38:55;4.10;;;2.35;;
73276;SDS011;61501;43.316;5.372;2023-07-31T03:41:20;5.10;;;2.70;;
73276;SDS011;61501;43.316;5.372;2023-07-31T03:43:49;7.47;;;2.42;;
73276;SDS011;61501;43.316;5.372;2023-07-31T03:46:17;6.80;;;2.28;;
73276;SDS011;61501;43.316;5.372;2023-07-31T03:48:42;5.20;;;1.90;;
73276;SDS011;61501;43.316;5.372;2023-07-31T03:51:08;5.13;;;2.03;;
73276;SDS011;61501;43.316;5.372;2023-07-31T03:53:37;3.45;;;1.90;;
73276;SDS011;61501;43.316;5.372;2023-07-31T03:56:02;13.60;;;3.05;;
73276;SDS011;61501;43.316;5.372;2023-07-31T03:58:29;4.88;;;2.25;;
73276;SDS011;61501;43.316;5.372;2023-07-31T04:00:55;6.93;;;2.40;;
73276;SDS011;61501;43.316;5.372;2023-07-31T04:03:21;4.13;;;2.10;;
73276;SDS011;61501;43.316;5.372;2023-07-31T04:05:46;7.05;;;2.28;;
73276;SDS011;61501;43.316;5.372;2023-07-31T04:08:13;6.78;;;2.20;;
73276;SDS011;61501;43.316;5.372;2023-07-31T04:10:39;6.30;;;2.67;;
73276;SDS011;61501;43.316;5.372;2023-07-31T04:13:04;6.38;;;2.80;;
73276;SDS011;61501;43.316;5.372;2023-07-31T04:15:30;6.97;;;2.67;;
73276;SDS011;61501;43.316;5.372;2023-07-31T04:17:56;7.15;;;2.95;;
73276;SDS011;61501;43.316;5.372;2023-07-31T04:20:21;4.28;;;2.20;;
73276;SDS011;61501;43.316;5.372;2023-07-31T04:22:47;4.65;;;2.38;;
73276;SDS011;61501;43.316;5.372;2023-07-31T04:25:13;5.70;;;2.58;;
73276;SDS011;61501;43.316;5.372;2023-07-31T04:27:39;5.72;;;2.40;;
73276;SDS011;61501;43.316;5.372;2023-07-31T04:30:05;5.03;;;2.17;;
73276;SDS011;61501;43.316;5.372;2023-07-31T04:32:32;8.40;;;2.58;;
73276;SDS011;61501;43.316;5.372;2023-07-31T04:34:58;4.82;;;2.00;;
73276;SDS011;61501;43.316;5.372;2023-07-31T04:37:24;4.28;;;1.88;;
73276;SDS011;61501;43.316;5.372;2023-07-31T04:39:49;5.80;;;2.03;;
73276;SDS011;61501;43.316;5.372;2023-07-31T04:42:15;5.55;;;2.17;;
73276;SDS011;61501;43.316;5.372;2023-07-31T04:44:41;3.67;;;1.65;;
73276;SDS011;61501;43.316;5.372;2023-07-31T04:47:06;5.10;;;2.30;;
73276;SDS011;61501;43.316;5.372;2023-07-31T04:49:32;3.58;;;2.08;;
73276;SDS011;61501;43.316;5.372;2023-07-31T04:51:58;5.15;;;2.60;;
73276;SDS011;61501;43.316;5.372;2023-07-31T04:54:24;6.47;;;2.72;;
73276;SDS011;61501;43.316;5.372;2023-07-31T04:56:49;3.72;;;1.80;;
73276;SDS011;61501;43.316;5.372;2023-07-31T04:59:15;7.05;;;2.60;;
73276;SDS011;61501;43.316;5.372;2023-07-31T05:01:41;5.55;;;2.03;;
73276;SDS011;61501;43.316;5.372;2023-07-31T05:04:06;4.70;;;3.10;;
73276;SDS011;61501;43.316;5.372;2023-07-31T05:06:32;7.93;;;2.70;;
73276;SDS011;61501;43.316;5.372;2023-07-31T05:08:58;6.40;;;2.10;;
73276;SDS011;61501;43.316;5.372;2023-07-31T05:11:23;5.55;;;2.22;;
73276;SDS011;61501;43.316;5.372;2023-07-31T05:13:49;6.28;;;2.53;;
73276;SDS011;61501;43.316;5.372;2023-07-31T05:16:14;6.50;;;2.40;;
73276;SDS011;61501;43.316;5.372;2023-07-31T05:18:40;6.53;;;2.95;;
73276;SDS011;61501;43.316;5.372;2023-07-31T05:21:06;4.82;;;2.40;;
73276;SDS011;61501;43.316;5.372;2023-07-31T05:23:32;5.93;;;2.22;;
73276;SDS011;61501;43.316;5.372;2023-07-31T05:26:07;5.78;;;2.55;;
73276;SDS011;61501;43.316;5.372;2023-07-31T05:28:36;6.30;;;2.75;;
73276;SDS011;61501;43.316;5.372;2023-07-31T05:31:03;5.40;;;2.30;;
73276;SDS011;61501;43.316;5.372;2023-07-31T05:33:30;8.65;;;2.85;;
73276;SDS011;61501;43.316;5.372;2023-07-31T05:35:56;8.27;;;2.40;;
73276;SDS011;61501;43.316;5.372;2023-07-31T05:38:22;5.68;;;2.40;;
73276;SDS011;61501;43.316;5.372;2023-07-31T05:40:48;8.05;;;2.50;;
73276;SDS011;61501;43.316;5.372;2023-07-31T05:43:13;7.82;;;2.10;;
73276;SDS011;61501;43.316;5.372;2023-07-31T05:45:39;7.25;;;2.20;;
73276;SDS011;61501;43.316;5.372;2023-07-31T05:48:06;4.28;;;2.20;;
73276;SDS011;61501;43.316;5.372;2023-07-31T05:50:32;7.22;;;2.08;;
73276;SDS011;61501;43.316;5.372;2023-07-31T05:52:58;5.43;;;2.20;;
73276;SDS011;61501;43.316;5.372;2023-07-31T05:55:23;10.90;;;3.13;;
73276;SDS011;61501;43.316;5.372;2023-07-31T05:57:52;8.40;;;2.30;;
73276;SDS011;61501;43.316;5.372;2023-07-31T06:00:18;7.35;;;2.42;;
73276;SDS011;61501;43.316;5.372;2023-07-31T06:02:43;9.85;;;2.40;;
73276;SDS011;61501;43.316;5.372;2023-07-31T06:05:09;8.00;;;2.20;;
73276;SDS011;61501;43.316;5.372;2023-07-31T06:07:35;5.10;;;2.20;;
73276;SDS011;61501;43.316;5.372;2023-07-31T06:10:01;6.95;;;2.25;;
73276;SDS011;61501;43.316;5.372;2023-07-31T06:12:28;6.50;;;2.63;;
73276;SDS011;61501;43.316;5.372;2023-07-31T06:14:54;6.72;;;2.83;;
73276;SDS011;61501;43.316;5.372;2023-07-31T06:17:20;4.80;;;2.65;;
73276;SDS011;61501;43.316;5.372;2023-07-31T06:19:46;8.15;;;2.45;;
73276;SDS011;61501;43.316;5.372;2023-07-31T06:22:12;8.55;;;2.33;;
73276;SDS011;61501;43.316;5.372;2023-07-31T06:24:37;5.03;;;2.35;;
73276;SDS011;61501;43.316;5.372;2023-07-31T06:27:03;5.68;;;2.38;;
73276;SDS011;61501;43.316;5.372;2023-07-31T06:29:30;8.25;;;3.10;;
73276;SDS011;61501;43.316;5.372;2023-07-31T06:31:56;8.95;;;2.70;;
73276;SDS011;61501;43.316;5.372;2023-07-31T06:34:22;9.88;;;2.58;;
73276;SDS011;61501;43.316;5.372;2023-07-31T06:36:47;10.05;;;3.33;;
73276;SDS011;61501;43.316;5.372;2023-07-31T06:39:13;9.27;;;2.42;;
73276;SDS011;61501;43.316;5.372;2023-07-31T06:41:39;10.77;;;3.45;;
73276;SDS011;61501;43.316;5.372;2023-07-31T06:44:04;7.45;;;2.50;;
73276;SDS011;61501;43.316;5.372;2023-07-31T06:46:30;7.00;;;2.30;;
73276;SDS011;61501;43.316;5.372;2023-07-31T06:48:59;4.57;;;2.22;;
73276;SDS011;61501;43.316;5.372;2023-07-31T06:51:28;4.20;;;2.20;;
73276;SDS011;61501;43.316;5.372;2023-07-31T06:53:56;8.93;;;2.95;;
73276;SDS011;61501;43.316;5.372;2023-07-31T06:56:22;8.05;;;2.75;;
73276;SDS011;61501;43.316;5.372;2023-07-31T06:58:48;7.10;;;2.63;;
73276;SDS011;61501;43.316;5.372;2023-07-31T07:01:13;7.50;;;2.63;;
73276;SDS011;61501;43.316;5.372;2023-07-31T07:03:39;9.20;;;3.00;;
73276;SDS011;61501;43.316;5.372;2023-07-31T07:06:05;5.05;;;2.45;;
73276;SDS011;61501;43.316;5.372;2023-07-31T07:08:30;12.55;;;3.00;;
73276;SDS011;61501;43.316;5.372;2023-07-31T07:10:56;5.53;;;2.55;;
73276;SDS011;61501;43.316;5.372;2023-07-31T07:13:22;9.07;;;2.70;;
73276;SDS011;61501;43.316;5.372;2023-07-31T07:15:48;8.07;;;2.30;;
73276;SDS011;61501;43.316;5.372;2023-07-31T07:18:14;5.97;;;2.67;;
73276;SDS011;61501;43.316;5.372;2023-07-31T07:20:40;6.75;;;2.20;;
73276;SDS011;61501;43.316;5.372;2023-07-31T07:23:06;7.25;;;2.33;;
73276;SDS011;61501;43.316;5.372;2023-07-31T07:25:31;6.78;;;2.28;;
73276;SDS011;61501;43.316;5.372;2023-07-31T07:27:57;9.82;;;3.10;;
73276;SDS011;61501;43.316;5.372;2023-07-31T07:30:23;6.35;;;2.38;;
73276;SDS011;61501;43.316;5.372;2023-07-31T07:32:50;10.80;;;2.53;;
73276;SDS011;61501;43.316;5.372;2023-07-31T07:35:15;5.60;;;2.72;;
73276;SDS011;61501;43.316;5.372;2023-07-31T07:37:41;5.40;;;2.40;;
73276;SDS011;61501;43.316;5.372;2023-07-31T07:40:07;8.13;;;2.75;;
73276;SDS011;61501;43.316;5.372;2023-07-31T07:42:33;5.18;;;2.33;;
73276;SDS011;61501;43.316;5.372;2023-07-31T07:44:59;8.90;;;2.65;;
73276;SDS011;61501;43.316;5.372;2023-07-31T07:47:24;9.82;;;2.42;;
73276;SDS011;61501;43.316;5.372;2023-07-31T07:49:50;5.70;;;2.38;;
73276;SDS011;61501;43.316;5.372;2023-07-31T07:52:15;7.32;;;2.13;;
73276;SDS011;61501;43.316;5.372;2023-07-31T07:54:41;6.70;;;2.50;;
73276;SDS011;61501;43.316;5.372;2023-07-31T07:57:07;6.63;;;2.28;;
73276;SDS011;61501;43.316;5.372;2023-07-31T07:59:32;7.95;;;3.13;;
73276;SDS011;61501;43.316;5.372;2023-07-31T08:01:58;6.72;;;2.65;;
73276;SDS011;61501;43.316;5.372;2023-07-31T08:04:23;8.15;;;2.30;;
73276;SDS011;61501;43.316;5.372;2023-07-31T08:06:49;7.25;;;2.40;;
73276;SDS011;61501;43.316;5.372;2023-07-31T08:09:15;6.72;;;2.25;;
73276;SDS011;61501;43.316;5.372;2023-07-31T08:11:40;4.25;;;2.40;;
73276;SDS011;61501;43.316;5.372;2023-07-31T08:14:06;6.05;;;2.78;;
73276;SDS011;61501;43.316;5.372;2023-07-31T08:16:32;7.32;;;2.75;;
73276;SDS011;61501;43.316;5.372;2023-07-31T08:18:57;11.00;;;3.03;;
73276;SDS011;61501;43.316;5.372;2023-07-31T08:21:23;15.18;;;2.58;;
73276;SDS011;61501;43.316;5.372;2023-07-31T08:23:49;5.43;;;2.47;;
73276;SDS011;61501;43.316;5.372;2023-07-31T08:26:18;8.25;;;2.60;;
73276;SDS011;61501;43.316;5.372;2023-07-31T08:28:46;9.27;;;2.60;;
73276;SDS011;61501;43.316;5.372;2023-07-31T08:31:12;8.52;;;2.83;;
73276;SDS011;61501;43.316;5.372;2023-07-31T08:33:38;6.68;;;2.50;;
73276;SDS011;61501;43.316;5.372;2023-07-31T08:36:05;4.88;;;2.60;;
73276;SDS011;61501;43.316;5.372;2023-07-31T08:38:48;7.78;;;2.55;;
73276;SDS011;61501;43.316;5.372;2023-07-31T08:41:15;8.70;;;2.53;;
73276;SDS011;61501;43.316;5.372;2023-07-31T08:43:44;7.68;;;2.40;;
73276;SDS011;61501;43.316;5.372;2023-07-31T08:46:11;10.65;;;2.63;;
73276;SDS011;61501;43.316;5.372;2023-07-31T08:48:37;8.52;;;2.65;;
73276;SDS011;61501;43.316;5.372;2023-07-31T08:51:03;7.63;;;2.60;;
73276;SDS011;61501;43.316;5.372;2023-07-31T08:53:29;9.27;;;2.20;;
73276;SDS011;61501;43.316;5.372;2023-07-31T08:55:55;7.03;;;2.05;;
73276;SDS011;61501;43.316;5.372;2023-07-31T08:58:23;9.05;;;2.38;;
73276;SDS011;61501;43.316;5.372;2023-07-31T09:00:49;7.88;;;2.45;;
73276;SDS011;61501;43.316;5.372;2023-07-31T09:03:17;5.53;;;2.40;;
73276;SDS011;61501;43.316;5.372;2023-07-31T09:05:44;6.43;;;2.33;;
73276;SDS011;61501;43.316;5.372;2023-07-31T09:08:14;9.45;;;3.00;;
73276;SDS011;61501;43.316;5.372;2023-07-31T09:10:44;9.60;;;2.75;;
73276;SDS011;61501;43.316;5.372;2023-07-31T09:13:11;6.55;;;2.47;;
73276;SDS011;61501;43.316;5.372;2023-07-31T09:15:37;7.38;;;2.70;;
73276;SDS011;61501;43.316;5.372;2023-07-31T09:18:05;5.95;;;2.38;;
73276;SDS011;61501;43.316;5.372;2023-07-31T09:20:31;8.80;;;2.53;;
73276;SDS011;61501;43.316;5.372;2023-07-31T09:23:04;7.55;;;2.40;;
73276;SDS011;61501;43.316;5.372;2023-07-31T09:25:41;4.32;;;2.03;;
73276;SDS011;61501;43.316;5.372;2023-07-31T09:28:11;5.70;;;2.33;;
73276;SDS011;61501;43.316;5.372;2023-07-31T09:30:47;5.10;;;2.50;;
73276;SDS011;61501;43.316;5.372;2023-07-31T09:33:14;4.45;;;3.35;;
73276;SDS011;61501;43.316;5.372;2023-07-31T09:35:40;8.63;;;3.65;;
73276;SDS011;61501;43.316;5.372;2023-07-31T09:38:07;6.90;;;3.20;;
73276;SDS011;61501;43.316;5.372;2023-07-31T09:40:47;7.47;;;3.55;;
73276;SDS011;61501;43.316;5.372;2023-07-31T09:43:17;5.55;;;2.40;;
73276;SDS011;61501;43.316;5.372;2023-07-31T09:45:46;9.32;;;3.03;;
73276;SDS011;61501;43.316;5.372;2023-07-31T09:50:43;6.20;;;2.40;;
73276;SDS011;61501;43.316;5.372;2023-07-31T09:53:10;7.20;;;2.47;;
73276;SDS011;61501;43.316;5.372;2023-07-31T09:55:36;10.02;;;3.83;;
73276;SDS011;61501;43.316;5.372;2023-07-31T09:58:09;8.10;;;3.08;;
73276;SDS011;61501;43.316;5.372;2023-07-31T10:03:03;7.85;;;2.88;;
73276;SDS011;61501;43.316;5.372;2023-07-31T10:05:32;7.22;;;2.47;;
73276;SDS011;61501;43.316;5.372;2023-07-31T10:08:00;12.30;;;2.78;;
73276;SDS011;61501;43.316;5.372;2023-07-31T10:10:26;6.82;;;2.55;;
73276;SDS011;61501;43.316;5.372;2023-07-31T10:12:52;5.40;;;2.60;;
73276;SDS011;61501;43.316;5.372;2023-07-31T10:15:19;10.15;;;2.80;;
73276;SDS011;61501;43.316;5.372;2023-07-31T10:17:49;4.90;;;2.40;;
73276;SDS011;61501;43.316;5.372;2023-07-31T10:20:15;8.32;;;2.97;;
73276;SDS011;61501;43.316;5.372;2023-07-31T10:22:42;3.70;;;2.20;;
73276;SDS011;61501;43.316;5.372;2023-07-31T10:25:09;7.55;;;3.08;;
73276;SDS011;61501;43.316;5.372;2023-07-31T10:27:35;6.75;;;2.72;;
73276;SDS011;61501;43.316;5.372;2023-07-31T10:30:01;6.75;;;2.67;;
73276;SDS011;61501;43.316;5.372;2023-07-31T10:32:29;7.05;;;2.95;;
73276;SDS011;61501;43.316;5.372;2023-07-31T10:34:55;5.97;;;2.90;;
73276;SDS011;61501;43.316;5.372;2023-07-31T10:40:05;6.90;;;2.60;;
73276;SDS011;61501;43.316;5.372;2023-07-31T10:42:38;5.45;;;2.70;;
73276;SDS011;61501;43.316;5.372;2023-07-31T10:48:12;6.32;;;2.88;;
73276;SDS011;61501;43.316;5.372;2023-07-31T10:50:46;5.57;;;2.78;;
73276;SDS011;61501;43.316;5.372;2023-07-31T10:53:26;3.55;;;2.63;;
73276;SDS011;61501;43.316;5.372;2023-07-31T10:55:57;5.40;;;2.30;;
73276;SDS011;61501;43.316;5.372;2023-07-31T10:58:24;5.32;;;2.50;;
73276;SDS011;61501;43.316;5.372;2023-07-31T11:00:50;6.82;;;2.78;;
73276;SDS011;61501;43.316;5.372;2023-07-31T11:03:24;5.07;;;2.63;;
73276;SDS011;61501;43.316;5.372;2023-07-31T11:05:52;5.68;;;2.47;;
73276;SDS011;61501;43.316;5.372;2023-07-31T11:10:48;8.35;;;2.80;;
73276;SDS011;61501;43.316;5.372;2023-07-31T11:13:26;7.07;;;2.78;;
73276;SDS011;61501;43.316;5.372;2023-07-31T11:16:15;5.15;;;2.75;;
73276;SDS011;61501;43.316;5.372;2023-07-31T11:18:43;4.95;;;2.65;;
73276;SDS011;61501;43.316;5.372;2023-07-31T11:21:17;6.70;;;2.70;;
73276;SDS011;61501;43.316;5.372;2023-07-31T11:23:47;6.28;;;2.63;;
73276;SDS011;61501;43.316;5.372;2023-07-31T11:26:14;5.35;;;2.45;;
73276;SDS011;61501;43.316;5.372;2023-07-31T11:28:40;12.07;;;5.75;;
73276;SDS011;61501;43.316;5.372;2023-07-31T11:31:08;21.75;;;10.15;;
73276;SDS011;61501;43.316;5.372;2023-07-31T11:33:35;17.67;;;10.55;;
73276;SDS011;61501;43.316;5.372;2023-07-31T11:36:00;14.93;;;8.95;;
73276;SDS011;61501;43.316;5.372;2023-07-31T11:38:30;9.27;;;5.38;;
73276;SDS011;61501;43.316;5.372;2023-07-31T11:40:57;8.95;;;5.00;;
73276;SDS011;61501;43.316;5.372;2023-07-31T11:43:24;11.00;;;5.15;;
73276;SDS011;61501;43.316;5.372;2023-07-31T11:45:53;12.43;;;4.53;;
73276;SDS011;61501;43.316;5.372;2023-07-31T11:48:21;8.18;;;3.85;;
73276;SDS011;61501;43.316;5.372;2023-07-31T11:50:51;10.65;;;5.47;;
73276;SDS011;61501;43.316;5.372;2023-07-31T11:53:25;7.78;;;3.90;;
73276;SDS011;61501;43.316;5.372;2023-07-31T11:56:19;10.77;;;3.65;;
73276;SDS011;61501;43.316;5.372;2023-07-31T11:58:46;6.38;;;4.25;;
73276;SDS011;61501;43.316;5.372;2023-07-31T12:01:15;7.90;;;3.00;;
73276;SDS011;61501;43.316;5.372;2023-07-31T12:03:42;8.25;;;3.60;;
73276;SDS011;61501;43.316;5.372;2023-07-31T12:06:08;8.70;;;3.38;;
73276;SDS011;61501;43.316;5.372;2023-07-31T12:08:34;6.32;;;2.88;;
73276;SDS011;61501;43.316;5.372;2023-07-31T12:11:04;14.68;;;3.97;;
73276;SDS011;61501;43.316;5.372;2023-07-31T12:13:32;8.05;;;3.00;;
73276;SDS011;61501;43.316;5.372;2023-07-31T12:16:00;6.68;;;3.67;;
73276;SDS011;61501;43.316;5.372;2023-07-31T12:18:29;6.10;;;3.60;;
73276;SDS011;61501;43.316;5.372;2023-07-31T12:20:59;5.03;;;2.78;;
73276;SDS011;61501;43.316;5.372;2023-07-31T12:23:26;7.75;;;2.65;;
73276;SDS011;61501;43.316;5.372;2023-07-31T12:26:33;5.75;;;2.78;;
73276;SDS011;61501;43.316;5.372;2023-07-31T12:28:46;9.20;;;3.13;;
73276;SDS011;61501;43.316;5.372;2023-07-31T12:31:16;7.63;;;2.80;;
73276;SDS011;61501;43.316;5.372;2023-07-31T12:33:44;5.28;;;2.40;;
73276;SDS011;61501;43.316;5.372;2023-07-31T12:36:15;6.70;;;3.08;;
73276;SDS011;61501;43.316;5.372;2023-07-31T12:38:43;12.50;;;3.10;;
73276;SDS011;61501;43.316;5.372;2023-07-31T12:41:09;6.03;;;2.90;;
73276;SDS011;61501;43.316;5.372;2023-07-31T12:43:36;11.07;;;2.78;;
73276;SDS011;61501;43.316;5.372;2023-07-31T12:46:02;5.80;;;2.92;;
73276;SDS011;61501;43.316;5.372;2023-07-31T12:48:28;5.57;;;2.65;;
73276;SDS011;61501;43.316;5.372;2023-07-31T12:50:54;7.35;;;3.00;;
73276;SDS011;61501;43.316;5.372;2023-07-31T12:53:20;8.40;;;3.80;;
73276;SDS011;61501;43.316;5.372;2023-07-31T12:55:46;8.43;;;3.97;;
73276;SDS011;61501;43.316;5.372;2023-07-31T12:58:12;14.85;;;5.53;;
73276;SDS011;61501;43.316;5.372;2023-07-31T13:00:37;13.07;;;4.70;;
73276;SDS011;61501;43.316;5.372;2023-07-31T13:03:03;9.30;;;4.18;;
73276;SDS011;61501;43.316;5.372;2023-07-31T13:05:29;8.75;;;3.80;;
73276;SDS011;61501;43.316;5.372;2023-07-31T13:07:55;9.15;;;4.25;;
73276;SDS011;61501;43.316;5.372;2023-07-31T13:10:22;8.18;;;3.53;;
73276;SDS011;61501;43.316;5.372;2023-07-31T13:12:48;6.60;;;3.50;;
73276;SDS011;61501;43.316;5.372;2023-07-31T13:15:14;7.80;;;3.35;;
73276;SDS011;61501;43.316;5.372;2023-07-31T13:17:40;10.45;;;4.20;;
73276;SDS011;61501;43.316;5.372;2023-07-31T13:20:06;9.38;;;3.70;;
73276;SDS011;61501;43.316;5.372;2023-07-31T13:22:32;15.52;;;3.58;;
73276;SDS011;61501;43.316;5.372;2023-07-31T13:24:58;13.77;;;4.28;;
73276;SDS011;61501;43.316;5.372;2023-07-31T13:27:23;9.40;;;3.97;;
73276;SDS011;61501;43.316;5.372;2023-07-31T13:29:49;8.98;;;4.20;;
73276;SDS011;61501;43.316;5.372;2023-07-31T13:32:19;7.40;;;3.85;;
73276;SDS011;61501;43.316;5.372;2023-07-31T13:34:46;6.90;;;3.70;;
73276;SDS011;61501;43.316;5.372;2023-07-31T13:37:12;12.63;;;4.68;;
73276;SDS011;61501;43.316;5.372;2023-07-31T13:39:38;10.85;;;3.90;;
73276;SDS011;61501;43.316;5.372;2023-07-31T13:42:04;8.05;;;4.18;;
73276;SDS011;61501;43.316;5.372;2023-07-31T13:44:37;7.30;;;3.63;;
73276;SDS011;61501;43.316;5.372;2023-07-31T13:47:03;11.80;;;4.45;;
73276;SDS011;61501;43.316;5.372;2023-07-31T13:49:29;8.70;;;4.00;;
73276;SDS011;61501;43.316;5.372;2023-07-31T13:51:55;8.50;;;3.85;;
73276;SDS011;61501;43.316;5.372;2023-07-31T13:54:22;10.50;;;4.50;;
73276;SDS011;61501;43.316;5.372;2023-07-31T13:56:48;7.68;;;4.00;;
73276;SDS011;61501;43.316;5.372;2023-07-31T13:59:14;7.07;;;3.58;;
73276;SDS011;61501;43.316;5.372;2023-07-31T14:01:41;9.45;;;4.38;;
73276;SDS011;61501;43.316;5.372;2023-07-31T14:04:07;10.23;;;4.88;;
73276;SDS011;61501;43.316;5.372;2023-07-31T14:06:33;6.18;;;3.80;;
73276;SDS011;61501;43.316;5.372;2023-07-31T14:08:59;9.93;;;4.38;;
73276;SDS011;61501;43.316;5.372;2023-07-31T14:11:24;8.23;;;3.90;;
73276;SDS011;61501;43.316;5.372;2023-07-31T14:13:50;7.05;;;4.30;;
73276;SDS011;61501;43.316;5.372;2023-07-31T14:16:16;10.82;;;4.20;;
73276;SDS011;61501;43.316;5.372;2023-07-31T14:18:42;7.93;;;3.80;;
73276;SDS011;61501;43.316;5.372;2023-07-31T14:21:08;7.25;;;3.83;;
73276;SDS011;61501;43.316;5.372;2023-07-31T14:23:34;8.48;;;4.68;;
73276;SDS011;61501;43.316;5.372;2023-07-31T14:26:00;10.32;;;4.70;;
73276;SDS011;61501;43.316;5.372;2023-07-31T14:28:25;9.68;;;4.47;;
73276;SDS011;61501;43.316;5.372;2023-07-31T14:30:51;10.05;;;4.70;;
73276;SDS011;61501;43.316;5.372;2023-07-31T14:33:17;9.90;;;4.53;;
73276;SDS011;61501;43.316;5.372;2023-07-31T14:35:42;8.43;;;3.90;;
73276;SDS011;61501;43.316;5.372;2023-07-31T14:38:08;8.98;;;4.30;;
73276;SDS011;61501;43.316;5.372;2023-07-31T14:40:34;10.13;;;3.95;;
73276;SDS011;61501;43.316;5.372;2023-07-31T14:42:59;7.93;;;4.35;;
73276;SDS011;61501;43.316;5.372;2023-07-31T14:45:25;9.32;;;4.00;;
73276;SDS011;61501;43.316;5.372;2023-07-31T14:47:51;10.40;;;4.75;;
73276;SDS011;61501;43.316;5.372;2023-07-31T14:50:16;7.00;;;4.05;;
73276;SDS011;61501;43.316;5.372;2023-07-31T14:52:42;11.10;;;4.80;;
73276;SDS011;61501;43.316;5.372;2023-07-31T14:55:07;7.55;;;4.20;;
73276;SDS011;61501;43.316;5.372;2023-07-31T14:57:34;9.27;;;4.55;;
73276;SDS011;61501;43.316;5.372;2023-07-31T15:00:00;12.52;;;5.00;;